Time;durP1;ratioP1;P1;durP2;ratioP2;P2;SDS_P1;SDS_P2;PMS_P1;PMS_P2;Temp;Humidity;BMP_temperature;BMP_pressure;BME280_temperature;BME280_humidity;BME280_pressure;Samples;Min_cycle;Max_cycle;Signal;HPM_P1;HPM_P2
2023/08/17 00:01:32;;;;;;;840.97;634.13;;;;;;;;;;5088278;28;20047;-59
2023/08/17 00:03:58;;;;;;;869.45;550.53;;;;;;;;;;5089940;28;20461;-58
2023/08/17 00:06:23;;;;;;;864.90;560.35;;;;;;;;;;5089807;28;20027;-59
2023/08/17 00:08:48;;;;;;;833.35;437.75;;;;;;;;;;5089981;28;20020;-59
2023/08/17 00:11:14;;;;;;;873.00;583.08;;;;;;;;;;5086201;28;20028;-58
2023/08/17 00:13:39;;;;;;;848.00;538.75;;;;;;;;;;5069730;28;20078;-56
2023/08/17 00:16:04;;;;;;;891.23;622.50;;;;;;;;;;5069937;28;20020;-57
2023/08/17 00:18:30;;;;;;;847.80;486.50;;;;;;;;;;5102461;28;20249;-59
2023/08/17 00:20:56;;;;;;;872.42;544.25;;;;;;;;;;5089061;28;20036;-56
2023/08/17 00:23:21;;;;;;;895.67;576.45;;;;;;;;;;5087651;28;20020;-56
2023/08/17 00:25:47;;;;;;;880.08;588.90;;;;;;;;;;5089178;28;20545;-59
2023/08/17 00:28:13;;;;;;;887.97;538.38;;;;;;;;;;5071242;28;20036;-59
2023/08/17 00:30:38;;;;;;;821.85;612.45;;;;;;;;;;5068685;28;20085;-59
2023/08/17 00:33:03;;;;;;;819.75;575.95;;;;;;;;;;5084178;28;20073;-59
2023/08/17 00:35:29;;;;;;;887.65;562.97;;;;;;;;;;5088158;28;20020;-55
2023/08/17 00:37:55;;;;;;;877.65;554.33;;;;;;;;;;5087535;28;20132;-59
2023/08/17 00:40:20;;;;;;;887.47;537.95;;;;;;;;;;5088367;28;20043;-56
2023/08/17 00:42:45;;;;;;;898.83;609.72;;;;;;;;;;5088643;28;20117;-59
2023/08/17 00:45:11;;;;;;;881.13;526.05;;;;;;;;;;5089447;28;20024;-59
2023/08/17 00:47:36;;;;;;;872.17;542.42;;;;;;;;;;5088651;28;20132;-56
2023/08/17 00:50:02;;;;;;;846.80;480.88;;;;;;;;;;5089571;28;20016;-59
2023/08/17 00:52:27;;;;;;;828.55;432.17;;;;;;;;;;5087510;28;20054;-57
2023/08/17 00:54:53;;;;;;;886.92;557.15;;;;;;;;;;5088618;28;20032;-56
2023/08/17 00:57:19;;;;;;;885.28;551.65;;;;;;;;;;5079964;28;20025;-54
2023/08/17 00:59:45;;;;;;;884.97;549.35;;;;;;;;;;5068128;28;20079;-55
2023/08/17 01:02:11;;;;;;;891.63;561.28;;;;;;;;;;5076509;28;20044;-59
2023/08/17 01:04:36;;;;;;;886.83;585.03;;;;;;;;;;5091755;28;20743;-59
2023/08/17 01:07:01;;;;;;;903.95;617.70;;;;;;;;;;5090538;28;20053;-60
2023/08/17 01:09:27;;;;;;;897.53;619.70;;;;;;;;;;5091824;28;20083;-54
2023/08/17 01:12:12;;;;;;;867.70;522.38;;;;;;;;;;5084870;28;20029;-58
2023/08/17 01:14:43;;;;;;;848.50;475.13;;;;;;;;;;5072164;28;20035;-59
2023/08/17 01:17:20;;;;;;;836.08;443.70;;;;;;;;;;5079602;28;20035;-60
2023/08/17 01:19:46;;;;;;;834.00;444.67;;;;;;;;;;5092825;28;20081;-59
2023/08/17 01:22:12;;;;;;;831.47;433.08;;;;;;;;;;5089704;28;20024;-59
2023/08/17 01:24:38;;;;;;;833.50;438.63;;;;;;;;;;5091310;28;20031;-58
2023/08/17 01:27:03;;;;;;;850.47;490.70;;;;;;;;;;5090901;28;20020;-56
2023/08/17 01:29:28;;;;;;;832.42;429.60;;;;;;;;;;5093149;28;20725;-60
2023/08/17 01:31:58;;;;;;;869.95;538.83;;;;;;;;;;5106128;28;20043;-60
2023/08/17 01:34:24;;;;;;;835.28;446.58;;;;;;;;;;5091315;28;20103;-57
2023/08/17 01:36:56;;;;;;;849.38;490.88;;;;;;;;;;5090278;28;20024;-59
2023/08/17 01:39:23;;;;;;;838.67;453.85;;;;;;;;;;5092813;28;20052;-56
2023/08/17 01:41:49;;;;;;;883.42;559.00;;;;;;;;;;5091053;28;20028;-59
2023/08/17 01:44:14;;;;;;;906.08;597.00;;;;;;;;;;5092998;28;20073;-58
2023/08/17 01:46:41;;;;;;;887.22;538.75;;;;;;;;;;5091439;28;20496;-59
2023/08/17 01:49:07;;;;;;;897.20;579.53;;;;;;;;;;5089534;28;20028;-53
2023/08/17 01:51:32;;;;;;;849.75;481.35;;;;;;;;;;5089503;28;20041;-56
2023/08/17 01:53:57;;;;;;;889.55;542.92;;;;;;;;;;5091934;28;20029;-59
2023/08/17 01:56:22;;;;;;;890.30;544.27;;;;;;;;;;5088621;28;20064;-59
2023/08/17 01:58:48;;;;;;;900.33;602.20;;;;;;;;;;5085372;28;20269;-55
2023/08/17 02:01:13;;;;;;;903.53;570.33;;;;;;;;;;5071102;28;20028;-55
2023/08/17 02:03:38;;;;;;;901.05;573.60;;;;;;;;;;5091421;28;20028;-59
2023/08/17 02:06:03;;;;;;;894.55;566.22;;;;;;;;;;5092791;28;20032;-59
2023/08/17 02:08:29;;;;;;;892.58;559.75;;;;;;;;;;5088372;28;20450;-58
2023/08/17 02:10:54;;;;;;;890.17;543.05;;;;;;;;;;5090704;28;20025;-59
2023/08/17 02:13:20;;;;;;;893.55;549.13;;;;;;;;;;5089635;28;20527;-59
2023/08/17 02:15:46;;;;;;;894.67;593.33;;;;;;;;;;5091063;28;20028;-56
2023/08/17 02:18:11;;;;;;;892.28;539.22;;;;;;;;;;5089115;28;20081;-59
2023/08/17 02:20:36;;;;;;;888.53;537.13;;;;;;;;;;5091527;28;20024;-55
2023/08/17 02:23:02;;;;;;;883.57;533.63;;;;;;;;;;5089750;28;20475;-59
2023/08/17 02:25:33;;;;;;;901.95;576.65;;;;;;;;;;5091393;28;20241;-59
2023/08/17 02:27:59;;;;;;;855.30;494.38;;;;;;;;;;5088320;28;20427;-55
2023/08/17 02:30:25;;;;;;;850.95;483.88;;;;;;;;;;5090958;28;20016;-57
2023/08/17 02:32:50;;;;;;;854.70;477.73;;;;;;;;;;5090355;28;20065;-57
2023/08/17 02:35:15;;;;;;;843.78;461.52;;;;;;;;;;5091257;28;20733;-60
2023/08/17 02:37:41;;;;;;;857.92;499.48;;;;;;;;;;5089185;28;20077;-59
2023/08/17 02:40:06;;;;;;;836.40;444.45;;;;;;;;;;5091106;28;20035;-58
2023/08/17 02:42:31;;;;;;;846.35;468.63;;;;;;;;;;5088610;28;20488;-60
2023/08/17 02:44:57;;;;;;;839.08;450.38;;;;;;;;;;5088894;28;20070;-61
2023/08/17 02:47:22;;;;;;;837.40;445.00;;;;;;;;;;5080584;28;20028;-58
2023/08/17 02:49:49;;;;;;;837.20;445.45;;;;;;;;;;5070511;28;20059;-60
2023/08/17 02:52:14;;;;;;;860.65;520.92;;;;;;;;;;5078886;28;20048;-60
2023/08/17 02:54:39;;;;;;;850.13;477.30;;;;;;;;;;5089952;28;20072;-60
2023/08/17 02:57:05;;;;;;;897.10;564.63;;;;;;;;;;5103474;28;20410;-60
2023/08/17 02:59:30;;;;;;;889.20;550.35;;;;;;;;;;5090872;28;20249;-55
2023/08/17 03:01:55;;;;;;;889.85;558.30;;;;;;;;;;5089399;28;20408;-60
2023/08/17 03:04:21;;;;;;;880.85;545.38;;;;;;;;;;5090995;28;20015;-60
2023/08/17 03:06:46;;;;;;;885.20;540.33;;;;;;;;;;5084669;28;20044;-60
2023/08/17 03:09:11;;;;;;;889.83;557.38;;;;;;;;;;5070426;28;20020;-60
2023/08/17 03:11:36;;;;;;;898.40;567.53;;;;;;;;;;5076560;28;20033;-57
2023/08/17 03:14:02;;;;;;;883.05;533.08;;;;;;;;;;5090158;28;20728;-56
2023/08/17 03:16:29;;;;;;;890.40;546.83;;;;;;;;;;5086981;28;20027;-61
2023/08/17 03:18:55;;;;;;;894.10;556.92;;;;;;;;;;5091188;28;20008;-55
2023/08/17 03:21:20;;;;;;;892.38;561.28;;;;;;;;;;5088696;28;20039;-59
2023/08/17 03:23:45;;;;;;;890.05;556.75;;;;;;;;;;5090917;28;20034;-60
2023/08/17 03:26:11;;;;;;;899.63;581.40;;;;;;;;;;5103266;28;20453;-58
2023/08/17 03:28:36;;;;;;;892.60;582.55;;;;;;;;;;5089659;28;20016;-53
2023/08/17 03:31:02;;;;;;;894.78;555.80;;;;;;;;;;5090296;28;20567;-61
2023/08/17 03:33:28;;;;;;;888.17;544.05;;;;;;;;;;5089412;28;20107;-60
2023/08/17 03:35:53;;;;;;;895.22;571.22;;;;;;;;;;5089558;28;20584;-54
2023/08/17 03:38:18;;;;;;;901.13;608.78;;;;;;;;;;5089478;28;20044;-59
2023/08/17 03:40:43;;;;;;;885.75;538.42;;;;;;;;;;5090681;28;20024;-60
2023/08/17 03:43:09;;;;;;;900.53;576.08;;;;;;;;;;5087955;28;20107;-60
2023/08/17 03:45:34;;;;;;;892.45;559.38;;;;;;;;;;5089005;28;20028;-57
2023/08/17 03:47:59;;;;;;;879.97;520.17;;;;;;;;;;5088322;28;20077;-60
2023/08/17 03:50:26;;;;;;;897.40;590.00;;;;;;;;;;5089085;28;20463;-60
2023/08/17 03:52:51;;;;;;;890.70;545.60;;;;;;;;;;5088665;28;20056;-56
2023/08/17 03:55:16;;;;;;;896.30;550.17;;;;;;;;;;5090542;28;20035;-60
2023/08/17 03:57:41;;;;;;;902.88;607.97;;;;;;;;;;5089129;28;20020;-60
2023/08/17 04:00:07;;;;;;;910.30;617.22;;;;;;;;;;5089339;28;20020;-60
2023/08/17 04:02:32;;;;;;;915.97;634.47;;;;;;;;;;5086246;28;20074;-59
2023/08/17 04:04:57;;;;;;;891.50;552.73;;;;;;;;;;5090172;28;20450;-60
2023/08/17 04:07:23;;;;;;;891.80;544.87;;;;;;;;;;5089305;28;20628;-60
2023/08/17 04:09:48;;;;;;;900.90;590.35;;;;;;;;;;5089977;28;20319;-59
2023/08/17 04:12:14;;;;;;;877.97;557.25;;;;;;;;;;5102523;28;20061;-60
2023/08/17 04:14:39;;;;;;;903.15;615.72;;;;;;;;;;5088341;28;21041;-60
2023/08/17 04:17:05;;;;;;;911.65;629.35;;;;;;;;;;5088534;28;20016;-60
2023/08/17 04:19:30;;;;;;;883.45;576.20;;;;;;;;;;5085709;28;20016;-58
2023/08/17 04:21:55;;;;;;;833.13;449.58;;;;;;;;;;5085587;28;20048;-60
2023/08/17 04:24:21;;;;;;;837.40;449.75;;;;;;;;;;5103080;28;20032;-60
2023/08/17 04:26:46;;;;;;;841.67;468.27;;;;;;;;;;5087164;28;20110;-56
2023/08/17 04:29:11;;;;;;;877.97;573.75;;;;;;;;;;5087911;28;20131;-59
2023/08/17 04:31:37;;;;;;;911.88;643.10;;;;;;;;;;5086644;28;20033;-57
2023/08/17 04:34:02;;;;;;;882.92;538.50;;;;;;;;;;5089745;28;20020;-59
2023/08/17 04:36:27;;;;;;;912.65;613.70;;;;;;;;;;5080889;28;20527;-59
2023/08/17 04:38:53;;;;;;;894.88;551.38;;;;;;;;;;5084166;28;20028;-57
2023/08/17 04:41:18;;;;;;;886.20;530.43;;;;;;;;;;5086754;28;20115;-59
2023/08/17 04:43:46;;;;;;;894.20;564.72;;;;;;;;;;5085000;28;20652;-59
2023/08/17 04:46:11;;;;;;;898.10;572.13;;;;;;;;;;5084053;28;20027;-59
2023/08/17 04:48:36;;;;;;;906.40;606.28;;;;;;;;;;5068991;28;20032;-56
2023/08/17 04:51:02;;;;;;;897.25;567.65;;;;;;;;;;5066030;28;20394;-54
2023/08/17 04:53:27;;;;;;;892.05;573.30;;;;;;;;;;5087048;28;20028;-61
2023/08/17 04:55:53;;;;;;;898.65;577.53;;;;;;;;;;5083335;28;20028;-58
2023/08/17 04:58:18;;;;;;;907.13;604.38;;;;;;;;;;5087505;28;20580;-60
2023/08/17 05:00:44;;;;;;;913.95;596.42;;;;;;;;;;5087390;28;20036;-60
2023/08/17 05:03:09;;;;;;;825.67;545.80;;;;;;;;;;5064285;28;20052;-56
2023/08/17 05:05:35;;;;;;;11.00;8.67;;;;;;;;;;5088462;28;20016;-57
2023/08/17 05:08:01;;;;;;;9.10;8.13;;;;;;;;;;5086352;28;20338;-60
2023/08/17 05:10:26;;;;;;;11.68;8.20;;;;;;;;;;5084495;28;20488;-59
2023/08/17 05:12:51;;;;;;;14.50;8.10;;;;;;;;;;5085295;28;20050;-59
2023/08/17 05:15:16;;;;;;;8.47;7.07;;;;;;;;;;5086718;28;20296;-60
2023/08/17 05:17:42;;;;;;;10.80;6.97;;;;;;;;;;5085348;28;20598;-56
2023/08/17 05:20:08;;;;;;;10.43;6.70;;;;;;;;;;5084742;28;20030;-60
2023/08/17 05:22:33;;;;;;;539.47;415.65;;;;;;;;;;5086173;28;20286;-58
2023/08/17 05:24:58;;;;;;;308.38;244.18;;;;;;;;;;5087069;28;20028;-60
2023/08/17 05:27:24;;;;;;;6.10;5.40;;;;;;;;;;5082873;28;20028;-57
2023/08/17 05:29:49;;;;;;;345.47;246.13;;;;;;;;;;5074074;28;20260;-55
2023/08/17 05:32:14;;;;;;;10.50;6.03;;;;;;;;;;5078762;28;20679;-57
2023/08/17 05:34:39;;;;;;;11.33;5.87;;;;;;;;;;5084792;28;20336;-59
2023/08/17 05:37:05;;;;;;;7.17;5.60;;;;;;;;;;5094353;28;22275;-58
2023/08/17 05:39:30;;;;;;;6.78;5.00;;;;;;;;;;5079198;28;20254;-56
2023/08/17 05:41:55;;;;;;;9.23;5.33;;;;;;;;;;5082310;28;20040;-57
2023/08/17 05:44:21;;;;;;;6.97;4.85;;;;;;;;;;5069738;28;20620;-59
2023/08/17 05:46:47;;;;;;;8.15;5.55;;;;;;;;;;5078016;28;20107;-59
2023/08/17 05:49:12;;;;;;;9.25;6.32;;;;;;;;;;5075357;28;20062;-56
2023/08/17 05:51:37;;;;;;;9.20;5.77;;;;;;;;;;5070732;28;20068;-58
2023/08/17 05:54:03;;;;;;;72.18;38.03;;;;;;;;;;5075889;28;20377;-54
2023/08/17 05:56:28;;;;;;;8.02;5.15;;;;;;;;;;5082532;28;20032;-59
2023/08/17 05:58:54;;;;;;;9.60;4.30;;;;;;;;;;5082057;28;20035;-59
2023/08/17 06:01:21;;;;;;;11.75;5.32;;;;;;;;;;5075723;28;20610;-54
2023/08/17 06:03:47;;;;;;;9.07;5.20;;;;;;;;;;5073096;28;20103;-59
2023/08/17 06:06:12;;;;;;;8.30;5.60;;;;;;;;;;5083448;28;21110;-55
2023/08/17 06:08:37;;;;;;;6.90;5.30;;;;;;;;;;5089364;28;20269;-58
2023/08/17 06:11:02;;;;;;;7.83;5.00;;;;;;;;;;5086405;28;20682;-59
2023/08/17 06:13:28;;;;;;;294.87;215.87;;;;;;;;;;5093609;28;20036;-57
2023/08/17 06:15:53;;;;;;;9.30;6.25;;;;;;;;;;5077984;28;20694;-56
2023/08/17 06:18:20;;;;;;;13.13;6.57;;;;;;;;;;5080337;28;20103;-59
2023/08/17 06:20:47;;;;;;;10.60;5.80;;;;;;;;;;5081717;28;20488;-59
2023/08/17 06:23:12;;;;;;;6.50;5.63;;;;;;;;;;5079460;28;20024;-56
2023/08/17 06:25:38;;;;;;;6.90;5.50;;;;;;;;;;5083917;28;20055;-57
2023/08/17 06:28:03;;;;;;;7.77;4.47;;;;;;;;;;5084331;28;20257;-57
2023/08/17 06:30:28;;;;;;;7.63;5.30;;;;;;;;;;5076358;28;20031;-60
2023/08/17 06:32:54;;;;;;;8.33;5.40;;;;;;;;;;5086185;28;20059;-58
2023/08/17 06:35:19;;;;;;;8.07;4.90;;;;;;;;;;5082701;28;20263;-60
2023/08/17 06:37:44;;;;;;;9.27;5.10;;;;;;;;;;5079169;28;20119;-56
2023/08/17 06:40:10;;;;;;;8.47;5.10;;;;;;;;;;5077033;28;20058;-58
2023/08/17 06:42:35;;;;;;;7.03;5.28;;;;;;;;;;5076919;28;20492;-61
2023/08/17 06:45:01;;;;;;;8.40;4.70;;;;;;;;;;5074510;28;20488;-62
2023/08/17 06:47:26;;;;;;;10.32;5.25;;;;;;;;;;5077471;28;20030;-60
2023/08/17 06:49:51;;;;;;;5.53;4.53;;;;;;;;;;5077994;28;20024;-60
2023/08/17 06:52:16;;;;;;;5.97;4.47;;;;;;;;;;5080093;28;20296;-61
2023/08/17 06:54:42;;;;;;;506.60;406.37;;;;;;;;;;5082792;28;20256;-59
2023/08/17 06:57:07;;;;;;;4.97;3.83;;;;;;;;;;5075563;28;20787;-55
2023/08/17 06:59:36;;;;;;;951.25;818.80;;;;;;;;;;5074646;28;20039;-59
2023/08/17 07:02:01;;;;;;;1001.30;842.00;;;;;;;;;;5079281;28;20059;-57
2023/08/17 07:04:26;;;;;;;952.33;857.50;;;;;;;;;;5074850;28;20108;-58
2023/08/17 07:06:52;;;;;;;1004.55;906.35;;;;;;;;;;5081978;28;20201;-60
2023/08/17 07:09:17;;;;;;;1006.67;911.17;;;;;;;;;;5082051;28;20044;-54
2023/08/17 07:11:42;;;;;;;966.90;880.27;;;;;;;;;;5080813;28;20504;-55
2023/08/17 07:14:08;;;;;;;838.75;766.25;;;;;;;;;;5073596;28;20023;-56
2023/08/17 07:16:33;;;;;;;847.22;774.55;;;;;;;;;;5076000;28;20487;-57
2023/08/17 07:18:58;;;;;;;850.57;776.57;;;;;;;;;;5079894;28;20012;-59
2023/08/17 07:21:24;;;;;;;878.30;801.30;;;;;;;;;;5078469;28;20360;-59
2023/08/17 07:23:50;;;;;;;885.00;808.57;;;;;;;;;;5076567;28;20043;-55
2023/08/17 07:26:15;;;;;;;927.97;845.33;;;;;;;;;;5076969;28;20363;-54
2023/08/17 07:28:40;;;;;;;913.45;831.38;;;;;;;;;;5086273;28;20135;-58
2023/08/17 07:31:06;;;;;;;914.67;830.33;;;;;;;;;;5089147;28;20028;-58
2023/08/17 07:33:31;;;;;;;949.30;863.07;;;;;;;;;;5071546;28;20581;-51
2023/08/17 07:35:58;;;;;;;880.90;803.42;;;;;;;;;;5077252;28;20048;-59
2023/08/17 07:38:23;;;;;;;886.90;810.58;;;;;;;;;;5072049;28;20039;-56
2023/08/17 07:40:48;;;;;;;833.15;760.10;;;;;;;;;;5068539;28;20024;-57
2023/08/17 07:43:14;;;;;;;845.77;770.03;;;;;;;;;;5070379;28;20388;-59
2023/08/17 07:45:39;;;;;;;850.33;777.47;;;;;;;;;;5075186;28;20292;-56
2023/08/17 07:48:04;;;;;;;873.20;796.67;;;;;;;;;;5075559;28;20150;-56
2023/08/17 07:50:30;;;;;;;852.75;777.83;;;;;;;;;;5068759;28;20264;-56
2023/08/17 07:52:55;;;;;;;877.50;800.50;;;;;;;;;;5072381;28;20484;-57
2023/08/17 07:55:20;;;;;;;897.08;817.65;;;;;;;;;;5073623;28;20263;-56
2023/08/17 07:57:45;;;;;;;928.55;845.08;;;;;;;;;;5076597;28;20107;-60
2023/08/17 08:00:11;;;;;;;902.63;818.30;;;;;;;;;;5079715;28;20051;-60
2023/08/17 08:02:36;;;;;;;902.88;822.60;;;;;;;;;;5073066;28;20893;-58
2023/08/17 08:05:02;;;;;;;899.57;817.77;;;;;;;;;;5072660;28;20035;-60
2023/08/17 08:07:27;;;;;;;923.05;835.70;;;;;;;;;;5067017;28;20625;-58
2023/08/17 08:09:52;;;;;;;877.83;790.87;;;;;;;;;;5078097;28;20688;-55
2023/08/17 08:12:17;;;;;;;878.90;782.45;;;;;;;;;;5079307;28;20272;-58
2023/08/17 08:14:43;;;;;;;938.00;806.97;;;;;;;;;;5078491;28;20024;-55
2023/08/17 08:17:08;;;;;;;879.80;787.43;;;;;;;;;;5068229;28;21078;-56
2023/08/17 08:19:33;;;;;;;895.80;803.60;;;;;;;;;;5076589;28;20399;-57
2023/08/17 08:21:59;;;;;;;895.75;787.42;;;;;;;;;;5082720;28;20096;-58
2023/08/17 08:24:25;;;;;;;917.13;831.05;;;;;;;;;;5084787;28;20058;-54
2023/08/17 08:26:50;;;;;;;932.53;842.22;;;;;;;;;;5081693;28;20028;-55
2023/08/17 08:29:16;;;;;;;957.55;869.20;;;;;;;;;;5085351;28;20091;-55
2023/08/17 08:31:41;;;;;;;974.50;852.40;;;;;;;;;;5083453;28;20250;-56
2023/08/17 08:34:06;;;;;;;911.43;827.97;;;;;;;;;;5086568;28;20039;-60
2023/08/17 08:36:31;;;;;;;1013.20;922.43;;;;;;;;;;5085205;28;20024;-59
2023/08/17 08:38:57;;;;;;;957.47;868.70;;;;;;;;;;5085906;28;20275;-55
2023/08/17 08:41:25;;;;;;;895.08;810.47;;;;;;;;;;5084904;28;20028;-56
2023/08/17 08:43:50;;;;;;;944.22;856.17;;;;;;;;;;5083782;28;20392;-61
2023/08/17 08:46:16;;;;;;;928.63;833.37;;;;;;;;;;5081956;28;20149;-59
2023/08/17 08:48:42;;;;;;;998.58;898.25;;;;;;;;;;5085008;28;20357;-56
2023/08/17 08:51:09;;;;;;;928.65;834.85;;;;;;;;;;5082894;28;20031;-59
2023/08/17 08:53:38;;;;;;;903.17;812.92;;;;;;;;;;5086168;28;20074;-57
2023/08/17 08:56:04;;;;;;;935.05;839.75;;;;;;;;;;5085855;28;20046;-59
2023/08/17 08:58:31;;;;;;;962.38;865.50;;;;;;;;;;5084710;28;20028;-59
2023/08/17 09:00:57;;;;;;;929.03;843.97;;;;;;;;;;5086992;28;20011;-55
2023/08/17 09:03:23;;;;;;;1025.07;928.25;;;;;;;;;;5085167;28;20381;-59
2023/08/17 09:05:49;;;;;;;1020.00;929.03;;;;;;;;;;5080858;28;20028;-58
2023/08/17 09:08:15;;;;;;;894.67;813.10;;;;;;;;;;5086642;28;20030;-60
2023/08/17 09:10:41;;;;;;;893.78;813.33;;;;;;;;;;5085632;28;20054;-56
2023/08/17 09:13:06;;;;;;;913.67;832.35;;;;;;;;;;5084112;28;20206;-57
2023/08/17 09:15:31;;;;;;;896.90;816.83;;;;;;;;;;5083719;28;20019;-57
2023/08/17 09:17:57;;;;;;;890.53;810.50;;;;;;;;;;5074596;28;20550;-58
2023/08/17 09:20:39;;;;;;;907.13;814.70;;;;;;;;;;5075466;28;20257;-59
2023/08/17 09:23:04;;;;;;;901.58;808.85;;;;;;;;;;5084440;28;20039;-49
2023/08/17 09:25:31;;;;;;;904.13;817.72;;;;;;;;;;5089245;28;20020;-60
2023/08/17 09:27:57;;;;;;;888.78;807.47;;;;;;;;;;5088772;28;20024;-57
2023/08/17 09:30:22;;;;;;;979.92;890.10;;;;;;;;;;5090453;28;20440;-56
2023/08/17 09:32:47;;;;;;;897.27;811.30;;;;;;;;;;5089359;28;20035;-54
2023/08/17 09:35:13;;;;;;;897.75;809.95;;;;;;;;;;5088968;28;20260;-59
2023/08/17 09:37:38;;;;;;;903.20;819.43;;;;;;;;;;5086743;28;20032;-57
2023/08/17 09:40:04;;;;;;;910.85;820.35;;;;;;;;;;5090240;28;20106;-59
2023/08/17 09:42:31;;;;;;;914.15;829.08;;;;;;;;;;5089270;28;20024;-59
2023/08/17 09:44:57;;;;;;;920.22;835.08;;;;;;;;;;5082931;28;20447;-56
2023/08/17 09:47:23;;;;;;;945.92;855.15;;;;;;;;;;5083728;28;20008;-58
2023/08/17 09:49:52;;;;;;;977.75;879.40;;;;;;;;;;5089679;28;20488;-57
2023/08/17 09:52:18;;;;;;;1039.03;936.45;;;;;;;;;;5087863;28;20046;-57
2023/08/17 09:54:46;;;;;;;945.80;851.97;;;;;;;;;;5089988;28;20020;-59
2023/08/17 09:57:12;;;;;;;932.08;844.00;;;;;;;;;;5087784;28;20585;-56
2023/08/17 09:59:37;;;;;;;1010.83;915.28;;;;;;;;;;5088497;28;20123;-53
2023/08/17 10:02:03;;;;;;;922.07;829.00;;;;;;;;;;5088065;28;20123;-58
2023/08/17 10:04:30;;;;;;;923.65;835.60;;;;;;;;;;5089605;28;20358;-60
2023/08/17 10:07:00;;;;;;;988.00;889.58;;;;;;;;;;5087803;28;20028;-58
2023/08/17 10:09:28;;;;;;;937.00;841.38;;;;;;;;;;5089666;28;20069;-58
2023/08/17 10:11:57;;;;;;;948.42;851.67;;;;;;;;;;5087221;28;20085;-59
2023/08/17 10:14:25;;;;;;;943.50;834.80;;;;;;;;;;5088684;28;20024;-60
2023/08/17 10:16:57;;;;;;;942.30;850.05;;;;;;;;;;5086593;28;20094;-54
2023/08/17 10:19:25;;;;;;;944.17;850.33;;;;;;;;;;5088248;28;20532;-58
2023/08/17 10:21:54;;;;;;;942.33;856.20;;;;;;;;;;5088055;28;20039;-59
2023/08/17 10:24:19;;;;;;;944.03;857.35;;;;;;;;;;5089672;28;20277;-59
2023/08/17 10:26:45;;;;;;;953.22;857.20;;;;;;;;;;5087301;28;20157;-58
2023/08/17 10:29:10;;;;;;;945.45;857.28;;;;;;;;;;5089613;28;20016;-57
2023/08/17 10:31:35;;;;;;;939.80;838.43;;;;;;;;;;5085561;28;20040;-60
2023/08/17 10:34:01;;;;;;;1000.70;812.00;;;;;;;;;;5089071;28;20237;-54
2023/08/17 10:36:27;;;;;;;1021.95;861.15;;;;;;;;;;5086401;28;21883;-59
2023/08/17 10:39:11;;;;;;;987.58;797.85;;;;;;;;;;5089001;28;20095;-60
2023/08/17 10:41:45;;;;;;;996.08;814.25;;;;;;;;;;5085632;28;20148;-60
2023/08/17 10:44:11;;;;;;;991.85;826.58;;;;;;;;;;5086394;28;20053;-58
2023/08/17 10:46:39;;;;;;;999.80;815.22;;;;;;;;;;5085992;28;20469;-61
2023/08/17 10:49:07;;;;;;;998.05;819.22;;;;;;;;;;5068761;28;20031;-57
2023/08/17 10:51:34;;;;;;;1050.95;907.63;;;;;;;;;;5073467;28;20044;-61
2023/08/17 10:54:01;;;;;;;1022.33;858.92;;;;;;;;;;5087966;28;20038;-60
2023/08/17 10:56:27;;;;;;;1001.20;828.28;;;;;;;;;;5084813;28;20025;-53
2023/08/17 10:58:52;;;;;;;1080.50;961.28;;;;;;;;;;5088612;28;20031;-54
2023/08/17 11:01:33;;;;;;;1056.38;934.60;;;;;;;;;;5086599;28;20020;-60
2023/08/17 11:04:17;;;;;;;1068.15;943.85;;;;;;;;;;5078142;28;20026;-60
2023/08/17 11:06:43;;;;;;;1037.25;881.90;;;;;;;;;;5081573;28;20032;-55
2023/08/17 11:09:08;;;;;;;980.45;847.42;;;;;;;;;;5067817;28;20517;-59
2023/08/17 11:11:34;;;;;;;1014.80;903.10;;;;;;;;;;5069689;28;20104;-60
2023/08/17 11:13:59;;;;;;;1069.07;952.00;;;;;;;;;;5087968;28;20708;-56
2023/08/17 11:16:25;;;;;;;988.63;894.23;;;;;;;;;;5081454;28;20016;-61
2023/08/17 11:18:51;;;;;;;1076.43;979.43;;;;;;;;;;5084551;28;20849;-60
2023/08/17 11:21:17;;;;;;;1076.85;965.88;;;;;;;;;;5083836;28;20652;-56
2023/08/17 11:23:42;;;;;;;1084.07;969.63;;;;;;;;;;5087878;28;20034;-58
2023/08/17 11:26:08;;;;;;;1086.20;970.50;;;;;;;;;;5086647;28;20053;-60
2023/08/17 11:28:36;;;;;;;1022.60;910.70;;;;;;;;;;5087596;28;20460;-57
2023/08/17 11:31:02;;;;;;;979.63;890.08;;;;;;;;;;5088261;28;20077;-58
2023/08/17 11:33:28;;;;;;;1014.70;918.72;;;;;;;;;;5084658;28;20040;-60
2023/08/17 11:35:56;;;;;;;1029.05;883.75;;;;;;;;;;5086566;28;20029;-58
2023/08/17 11:38:22;;;;;;;1002.67;869.00;;;;;;;;;;5086690;28;20032;-60
2023/08/17 11:40:47;;;;;;;958.60;823.50;;;;;;;;;;5088230;28;20031;-57
2023/08/17 11:43:13;;;;;;;928.65;811.40;;;;;;;;;;5085476;28;20315;-60
2023/08/17 11:45:39;;;;;;;924.45;822.33;;;;;;;;;;5085570;28;20027;-59
2023/08/17 11:48:04;;;;;;;934.63;817.90;;;;;;;;;;5083824;28;20447;-57
2023/08/17 11:50:29;;;;;;;999.17;906.83;;;;;;;;;;5085315;28;20054;-60
2023/08/17 11:52:55;;;;;;;978.87;814.97;;;;;;;;;;5087363;28;20488;-61
2023/08/17 11:55:20;;;;;;;965.13;872.03;;;;;;;;;;5087543;28;20244;-61
2023/08/17 11:57:46;;;;;;;972.60;878.58;;;;;;;;;;5086612;28;20027;-61
2023/08/17 12:00:16;;;;;;;1007.42;847.50;;;;;;;;;;5085723;28;20381;-63
2023/08/17 12:02:43;;;;;;;962.25;837.67;;;;;;;;;;5086470;28;20047;-60
2023/08/17 12:05:09;;;;;;;973.72;862.10;;;;;;;;;;5087743;28;20016;-62
2023/08/17 12:07:35;;;;;;;951.97;837.65;;;;;;;;;;5081384;28;20495;-57
2023/08/17 12:10:02;;;;;;;1003.53;879.53;;;;;;;;;;5087366;28;20024;-60
2023/08/17 12:12:28;;;;;;;1000.00;856.35;;;;;;;;;;5085302;28;20023;-58
2023/08/17 12:14:53;;;;;;;978.42;821.97;;;;;;;;;;5087679;28;20030;-58
2023/08/17 12:17:19;;;;;;;980.77;826.80;;;;;;;;;;5085588;28;20039;-59
2023/08/17 12:19:48;;;;;;;1010.40;852.53;;;;;;;;;;5087241;28;20260;-60
2023/08/17 12:22:14;;;;;;;989.10;837.25;;;;;;;;;;5085947;28;20028;-57
2023/08/17 12:24:39;;;;;;;992.38;834.85;;;;;;;;;;5086698;28;20103;-60
2023/08/17 12:27:05;;;;;;;1001.17;829.75;;;;;;;;;;5085997;28;20027;-56
2023/08/17 12:29:30;;;;;;;977.90;818.05;;;;;;;;;;5087093;28;20382;-55
2023/08/17 12:31:59;;;;;;;1036.57;900.10;;;;;;;;;;5085859;28;20405;-58
2023/08/17 12:34:24;;;;;;;992.45;821.28;;;;;;;;;;5085268;28;20423;-56
2023/08/17 12:36:50;;;;;;;1002.28;831.58;;;;;;;;;;5074369;28;20058;-60
2023/08/17 12:39:15;;;;;;;1073.00;954.85;;;;;;;;;;5084626;28;20276;-57
2023/08/17 12:41:41;;;;;;;1028.32;865.88;;;;;;;;;;5082177;28;20048;-60
2023/08/17 12:44:06;;;;;;;1019.70;855.92;;;;;;;;;;5074729;28;20351;-60
2023/08/17 12:46:32;;;;;;;1001.38;821.95;;;;;;;;;;5083295;28;20023;-58
2023/08/17 12:48:58;;;;;;;975.75;780.85;;;;;;;;;;5079711;28;20370;-60
2023/08/17 12:51:24;;;;;;;1000.13;829.60;;;;;;;;;;5084980;28;20060;-60
2023/08/17 12:53:49;;;;;;;1022.72;872.85;;;;;;;;;;5086897;28;20390;-55
2023/08/17 12:56:14;;;;;;;1060.20;944.15;;;;;;;;;;5085344;28;20450;-59
2023/08/17 12:58:40;;;;;;;1051.03;937.10;;;;;;;;;;5088637;28;20439;-60
2023/08/17 13:01:05;;;;;;;1037.13;891.77;;;;;;;;;;5091043;28;20240;-59
2023/08/17 13:03:30;;;;;;;1007.88;897.13;;;;;;;;;;5089006;28;20884;-56
2023/08/17 13:05:56;;;;;;;1052.55;932.35;;;;;;;;;;5088574;28;20031;-60
2023/08/17 13:08:21;;;;;;;1087.03;969.40;;;;;;;;;;5088556;28;20027;-58
2023/08/17 13:10:46;;;;;;;1039.07;923.80;;;;;;;;;;5090091;28;20594;-55
2023/08/17 13:13:11;;;;;;;1077.93;959.30;;;;;;;;;;5088755;28;20375;-61
2023/08/17 13:15:37;;;;;;;1038.95;926.85;;;;;;;;;;5090620;28;20024;-59
2023/08/17 13:18:02;;;;;;;972.53;865.72;;;;;;;;;;5089416;28;20023;-56
2023/08/17 13:20:28;;;;;;;1077.38;960.40;;;;;;;;;;5089313;28;20038;-60
2023/08/17 13:22:53;;;;;;;1024.32;912.13;;;;;;;;;;5088820;28;20437;-59
2023/08/17 13:25:18;;;;;;;1021.87;877.50;;;;;;;;;;5090759;28;20035;-56
2023/08/17 13:27:43;;;;;;;1029.00;882.83;;;;;;;;;;5089484;28;20016;-60
2023/08/17 13:30:09;;;;;;;1016.40;855.33;;;;;;;;;;5090427;28;20456;-60
2023/08/17 13:32:34;;;;;;;1010.83;844.47;;;;;;;;;;5089247;28;20032;-56
2023/08/17 13:35:01;;;;;;;1049.22;924.15;;;;;;;;;;5088169;28;20059;-61
2023/08/17 13:37:27;;;;;;;1014.75;855.10;;;;;;;;;;5087701;28;20099;-57
2023/08/17 13:39:53;;;;;;;977.90;786.20;;;;;;;;;;5089241;28;20516;-61
2023/08/17 13:42:18;;;;;;;1051.28;926.92;;;;;;;;;;5087930;28;20126;-60
2023/08/17 13:44:43;;;;;;;995.03;812.43;;;;;;;;;;5090558;28;20496;-59
2023/08/17 13:47:09;;;;;;;980.50;791.63;;;;;;;;;;5087935;28;20343;-60
2023/08/17 13:49:34;;;;;;;1062.03;946.40;;;;;;;;;;5090366;28;20062;-57